Time,TemperatureF,DewpointF,PressureIn,WindDirection,WindDirectionDegrees,WindSpeedMPH,WindSpeedGustMPH,Humidity,HourlyPrecipIn,Conditions,Clouds,dailyrainin,SolarRadiationWatts/m^2,SoftwareType,DateUTC
2013-08-30 00:04:00,73.0,70.0,-100.00,SSW,212,2.0,9.0,90,0.02,,,0.54,0.000000,,2013-08-30 05:04:00,
2013-08-30 00:12:00,73.0,70.0,-100.00,SSW,212,2.0,9.0,90,0.02,,,0.54,0.000000,,2013-08-30 05:12:00,
2013-08-30 00:42:00,71.0,67.0,-100.00,SSE,165,3.0,13.0,87,0.00,,,0.54,0.000000,,2013-08-30 05:42:00,
2013-08-30 00:52:00,71.0,67.0,-100.00,SSE,165,3.0,13.0,87,0.00,,,0.54,0.000000,,2013-08-30 05:52:00,
2013-08-30 01:02:00,71.0,67.0,-100.00,SSE,165,3.0,13.0,87,0.00,,,0.54,0.000000,,2013-08-30 06:02:00,
2013-08-30 01:12:00,71.0,67.0,-100.00,SSE,165,3.0,13.0,87,0.00,,,0.54,0.000000,,2013-08-30 06:12:00,
2013-08-30 01:42:00,69.0,67.0,-100.00,NNE,26,0.0,7.0,93,0.00,,,-99.99,0.000000,,2013-08-30 06:42:00,
2013-08-30 01:53:00,69.0,67.0,-100.00,NNE,26,0.0,7.0,93,0.00,,,-99.99,0.000000,,2013-08-30 06:53:00,
2013-08-30 02:02:00,69.0,67.0,-100.00,NNE,26,0.0,7.0,93,0.00,,,-99.99,0.000000,,2013-08-30 07:02:00,
2013-08-30 02:12:00,69.0,67.0,-100.00,NNE,26,0.0,7.0,93,0.00,,,-99.99,0.000000,,2013-08-30 07:12:00,
2013-08-30 02:44:00,67.0,66.0,-100.00,ENE,63,2.0,6.0,96,0.00,,,0.54,0.000000,,2013-08-30 07:44:00,
2013-08-30 02:53:00,67.0,66.0,-100.00,ENE,63,2.0,6.0,96,0.00,,,0.54,0.000000,,2013-08-30 07:53:00,
2013-08-30 03:03:00,67.0,66.0,-100.00,ENE,63,2.0,6.0,96,0.00,,,0.54,0.000000,,2013-08-30 08:03:00,
2013-08-30 03:11:00,67.0,66.0,-100.00,ENE,63,2.0,6.0,96,0.00,,,0.54,0.000000,,2013-08-30 08:11:00,
2013-08-30 03:43:00,67.0,66.0,-100.00,SE,135,0.0,6.0,95,0.00,,,0.54,0.000000,,2013-08-30 08:43:00,
2013-08-30 03:52:00,67.0,66.0,-100.00,SE,135,0.0,6.0,95,0.00,,,0.54,0.000000,,2013-08-30 08:52:00,
2013-08-30 04:02:00,67.0,66.0,-100.00,SE,135,0.0,6.0,95,0.00,,,0.54,0.000000,,2013-08-30 09:02:00,
2013-08-30 04:12:00,67.0,66.0,-100.00,SE,135,0.0,6.0,95,0.00,,,0.54,0.000000,,2013-08-30 09:12:00,
2013-08-30 04:44:00,66.0,65.0,-100.00,NW,324,0.0,3.0,96,0.00,,,0.54,0.000000,,2013-08-30 09:44:00,
2013-08-30 04:53:00,66.0,65.0,-100.00,NW,324,0.0,3.0,96,0.00,,,0.54,0.000000,,2013-08-30 09:53:00,
2013-08-30 05:03:00,66.0,65.0,-100.00,NW,324,0.0,3.0,96,0.00,,,0.54,0.000000,,2013-08-30 10:03:00,
2013-08-30 05:12:00,66.0,65.0,-100.00,NW,324,0.0,3.0,96,0.00,,,0.54,0.000000,,2013-08-30 10:12:00,
2013-08-30 05:43:00,68.0,67.0,-100.00,NNW,346,4.0,9.0,97,0.00,,,0.54,0.000000,,2013-08-30 10:43:00,
2013-08-30 05:53:00,68.0,67.0,-100.00,NNW,346,4.0,9.0,97,0.00,,,0.54,0.000000,,2013-08-30 10:53:00,
2013-08-30 06:03:00,68.0,67.0,-100.00,NNW,346,4.0,9.0,97,0.00,,,0.54,0.000000,,2013-08-30 11:03:00,
2013-08-30 06:12:00,68.0,67.0,-100.00,NNW,346,4.0,9.0,97,0.00,,,0.54,0.000000,,2013-08-30 11:12:00,
2013-08-30 06:42:00,67.0,65.0,-100.00,North,355,4.0,8.0,94,0.00,,,0.54,0.000000,,2013-08-30 11:42:00,
2013-08-30 06:52:00,67.0,65.0,-100.00,North,355,4.0,8.0,94,0.00,,,0.54,0.000000,,2013-08-30 11:52:00,
2013-08-30 07:01:00,67.0,65.0,-100.00,North,355,4.0,8.0,94,0.00,,,0.54,0.000000,,2013-08-30 12:01:00,
2013-08-30 07:12:00,67.0,65.0,-100.00,North,355,4.0,8.0,94,0.00,,,0.54,0.000000,,2013-08-30 12:12:00,
2013-08-30 07:42:00,67.0,64.0,-100.00,North,5,5.0,12.0,90,0.00,,,0.54,9.000000,,2013-08-30 12:42:00,
2013-08-30 07:52:00,67.0,64.0,-100.00,North,5,5.0,12.0,90,0.00,,,0.54,9.000000,,2013-08-30 12:52:00,
2013-08-30 08:02:00,67.0,64.0,-100.00,North,5,5.0,12.0,90,0.00,,,0.54,9.000000,,2013-08-30 13:02:00,
2013-08-30 08:11:00,67.0,64.0,-100.00,North,5,5.0,12.0,90,0.00,,,0.54,9.000000,,2013-08-30 13:11:00,
2013-08-30 08:42:00,68.0,64.0,-100.00,North,3,1.0,13.0,87,0.00,,,0.54,62.000000,,2013-08-30 13:42:00,
2013-08-30 08:52:00,68.0,64.0,-100.00,North,3,1.0,13.0,87,0.00,,,0.54,62.000000,,2013-08-30 13:52:00,
2013-08-30 09:02:00,68.0,64.0,-100.00,North,3,1.0,13.0,87,0.00,,,0.54,62.000000,,2013-08-30 14:02:00,
2013-08-30 09:11:00,68.0,64.0,-100.00,North,3,1.0,13.0,87,0.00,,,0.54,62.000000,,2013-08-30 14:11:00,
2013-08-30 09:42:00,71.0,64.0,-100.00,NNW,346,4.0,11.0,78,0.00,,,0.54,193.000000,,2013-08-30 14:42:00,
2013-08-30 09:52:00,71.0,64.0,-100.00,NNW,346,4.0,11.0,78,0.00,,,0.54,193.000000,,2013-08-30 14:52:00,
2013-08-30 10:02:00,71.0,64.0,-100.00,NNW,346,4.0,11.0,78,0.00,,,0.54,193.000000,,2013-08-30 15:02:00,
2013-08-30 10:11:00,71.0,64.0,-100.00,NNW,346,4.0,11.0,78,0.00,,,0.54,193.000000,,2013-08-30 15:11:00,
2013-08-30 10:43:00,73.0,64.0,-100.00,North,11,7.0,13.0,74,0.00,,,0.54,291.000000,,2013-08-30 15:43:00,
2013-08-30 10:54:00,73.0,64.0,-100.00,North,11,7.0,13.0,74,0.00,,,0.54,291.000000,,2013-08-30 15:54:00,
2013-08-30 11:05:00,73.0,64.0,-100.00,North,11,7.0,13.0,74,0.00,,,0.54,291.000000,,2013-08-30 16:05:00,
2013-08-30 11:13:00,73.0,64.0,-100.00,North,11,7.0,13.0,74,0.00,,,0.54,291.000000,,2013-08-30 16:13:00,
2013-08-30 11:43:00,75.0,65.0,-100.00,NNE,17,6.0,12.0,70,0.00,,,0.54,420.000000,,2013-08-30 16:43:00,
2013-08-30 11:53:00,75.0,65.0,-100.00,NNE,17,6.0,12.0,70,0.00,,,0.54,420.000000,,2013-08-30 16:53:00,
2013-08-30 12:03:00,75.0,65.0,-100.00,NNE,17,6.0,12.0,70,0.00,,,0.54,420.000000,,2013-08-30 17:03:00,
2013-08-30 12:13:00,75.0,65.0,-100.00,NNE,17,6.0,12.0,70,0.00,,,0.54,420.000000,,2013-08-30 17:13:00,
2013-08-30 12:42:00,76.0,64.0,-100.00,NE,56,5.0,13.0,67,0.00,,,0.54,486.000000,,2013-08-30 17:42:00,
2013-08-30 12:53:00,76.0,64.0,-100.00,NE,56,5.0,13.0,67,0.00,,,0.54,486.000000,,2013-08-30 17:53:00,
2013-08-30 13:02:00,76.0,64.0,-100.00,NE,56,5.0,13.0,67,0.00,,,0.54,486.000000,,2013-08-30 18:02:00,
2013-08-30 13:12:00,76.0,64.0,-100.00,NE,56,5.0,13.0,67,0.00,,,0.54,486.000000,,2013-08-30 18:12:00,
2013-08-30 13:42:00,78.0,64.0,-100.00,NE,50,4.0,12.0,63,0.00,,,0.54,498.000000,,2013-08-30 18:42:00,
2013-08-30 13:52:00,78.0,64.0,-100.00,NE,50,4.0,12.0,63,0.00,,,0.54,498.000000,,2013-08-30 18:52:00,
2013-08-30 14:01:00,78.0,64.0,-100.00,NE,50,4.0,12.0,63,0.00,,,0.54,498.000000,,2013-08-30 19:01:00,
2013-08-30 14:12:00,78.0,64.0,-100.00,NE,50,4.0,12.0,63,0.00,,,0.54,498.000000,,2013-08-30 19:12:00,
2013-08-30 14:42:00,82.0,63.0,-100.00,NE,42,6.0,15.0,52,0.00,,,0.54,767.000000,,2013-08-30 19:42:00,
2013-08-30 14:53:00,82.0,63.0,-100.00,NE,42,6.0,15.0,52,0.00,,,0.54,767.000000,,2013-08-30 19:53:00,
2013-08-30 15:03:00,82.0,63.0,-100.00,NE,42,6.0,15.0,52,0.00,,,0.54,767.000000,,2013-08-30 20:03:00,
2013-08-30 15:11:00,82.0,63.0,-100.00,NE,42,6.0,15.0,52,0.00,,,0.54,767.000000,,2013-08-30 20:11:00,
2013-08-30 15:43:00,83.0,62.0,-100.00,ENE,63,6.0,13.0,49,0.00,,,0.54,683.000000,,2013-08-30 20:43:00,
2013-08-30 15:52:00,83.0,62.0,-100.00,ENE,63,6.0,13.0,49,0.00,,,0.54,683.000000,,2013-08-30 20:52:00,
2013-08-30 16:02:00,83.0,62.0,-100.00,ENE,63,6.0,13.0,49,0.00,,,0.54,683.000000,,2013-08-30 21:02:00,
2013-08-30 16:11:00,83.0,62.0,-100.00,ENE,63,6.0,13.0,49,0.00,,,0.54,683.000000,,2013-08-30 21:11:00,
2013-08-30 16:44:00,84.0,62.0,-100.00,NE,42,6.0,16.0,48,0.00,,,0.54,586.000000,,2013-08-30 21:44:00,
2013-08-30 16:55:00,84.0,62.0,-100.00,NE,42,6.0,16.0,48,0.00,,,0.54,586.000000,,2013-08-30 21:55:00,
2013-08-30 17:04:00,84.0,62.0,-100.00,NE,42,6.0,16.0,48,0.00,,,0.54,586.000000,,2013-08-30 22:04:00,
2013-08-30 17:13:00,84.0,62.0,-100.00,NE,42,6.0,16.0,48,0.00,,,0.54,586.000000,,2013-08-30 22:13:00,
2013-08-30 17:43:00,84.0,62.0,-100.00,NE,38,4.0,12.0,47,0.00,,,0.54,448.000000,,2013-08-30 22:43:00,
2013-08-30 17:54:00,84.0,62.0,-100.00,NE,38,4.0,12.0,47,0.00,,,0.54,448.000000,,2013-08-30 22:54:00,
2013-08-30 18:03:00,84.0,62.0,-100.00,NE,38,4.0,12.0,47,0.00,,,0.54,448.000000,,2013-08-30 23:03:00,
2013-08-30 18:12:00,84.0,62.0,-100.00,NE,38,4.0,12.0,47,0.00,,,0.54,448.000000,,2013-08-30 23:12:00,
2013-08-30 18:42:00,82.0,58.0,-100.00,ENE,68,4.0,12.0,44,0.00,,,0.02,286.000000,,2013-08-30 23:42:00,
2013-08-30 18:53:00,82.0,58.0,-100.00,ENE,68,4.0,12.0,44,0.00,,,0.02,286.000000,,2013-08-30 23:53:00,
2013-08-30 19:02:00,82.0,58.0,-100.00,ENE,68,4.0,12.0,44,0.00,,,0.02,286.000000,,2013-08-31 00:02:00,
2013-08-30 19:11:00,82.0,58.0,-100.00,ENE,68,4.0,12.0,44,0.00,,,0.02,286.000000,,2013-08-31 00:11:00,
2013-08-30 19:42:00,78.0,64.0,-100.00,NNE,33,2.0,7.0,62,0.00,,,0.02,95.000000,,2013-08-31 00:42:00,
2013-08-30 19:52:00,78.0,64.0,-100.00,NNE,33,2.0,7.0,62,0.00,,,0.02,95.000000,,2013-08-31 00:52:00,
2013-08-30 20:01:00,78.0,64.0,-100.00,NNE,33,2.0,7.0,62,0.00,,,0.02,95.000000,,2013-08-31 01:01:00,
2013-08-30 20:11:00,78.0,64.0,-100.00,NNE,33,2.0,7.0,62,0.00,,,0.02,95.000000,,2013-08-31 01:11:00,
2013-08-30 20:42:00,71.0,64.0,-100.00,East,82,2.0,7.0,79,0.00,,,0.02,14.000000,,2013-08-31 01:42:00,
2013-08-30 20:52:00,71.0,64.0,-100.00,East,82,2.0,7.0,79,0.00,,,0.02,14.000000,,2013-08-31 01:52:00,
2013-08-30 21:02:00,71.0,64.0,-100.00,East,82,2.0,7.0,79,0.00,,,0.02,14.000000,,2013-08-31 02:02:00,
2013-08-30 21:12:00,71.0,64.0,-100.00,East,82,2.0,7.0,79,0.00,,,0.02,14.000000,,2013-08-31 02:12:00,
2013-08-30 21:42:00,69.0,60.0,-100.00,NE,43,0.0,6.0,74,0.00,,,0.02,0.000000,,2013-08-31 02:42:00,
2013-08-30 21:52:00,69.0,60.0,-100.00,NE,43,0.0,6.0,74,0.00,,,0.02,0.000000,,2013-08-31 02:52:00,
2013-08-30 22:02:00,69.0,60.0,-100.00,NE,43,0.0,6.0,74,0.00,,,0.02,0.000000,,2013-08-31 03:02:00,
2013-08-30 22:12:00,69.0,60.0,-100.00,NE,43,0.0,6.0,74,0.00,,,0.02,0.000000,,2013-08-31 03:12:00,
2013-08-30 22:45:00,62.0,60.0,-100.00,NE,35,0.0,3.0,92,0.00,,,0.02,0.000000,,2013-08-31 03:45:00,
2013-08-30 22:54:00,62.0,60.0,-100.00,NE,35,0.0,3.0,92,0.00,,,0.02,0.000000,,2013-08-31 03:54:00,
2013-08-30 23:05:00,62.0,60.0,-100.00,NE,35,0.0,3.0,92,0.00,,,0.02,0.000000,,2013-08-31 04:05:00,
2013-08-30 23:14:00,62.0,60.0,-100.00,NE,35,0.0,3.0,92,0.00,,,0.02,0.000000,,2013-08-31 04:14:00,
2013-08-30 23:44:00,60.0,58.0,-100.00,NNE,15,0.0,2.0,94,0.00,,,0.00,0.000000,,2013-08-31 04:44:00,
2013-08-30 23:54:00,60.0,58.0,-100.00,NNE,15,0.0,2.0,94,0.00,,,0.00,0.000000,,2013-08-31 04:54:00,